Hualapai Flat, Nevada Weather observations

Data are for 10 minute period ending at time listed.
 Day   Time   Solar   Ave.   Ave.  Ave.  Vector  Max.   Baro.   Total    
  of    of     Rad.   Air    Rel.  Wind   Wind   Wind  Press.  Precip.   
Year   Day            Temp.  Hum.  Speed  Dir.   Gust                    
2017   (PST)  Kw/m2    F      %     mph   deg.    mph    mb.     in.     
-------------------------------------------------------------------------
 113    2:30   0.00   42.2    56    6.6   280     8.5   871.5    0.00 
 113    2:40   0.00   40.8    59    7.3   290     9.2   871.5    0.00 
 113    2:50   0.00   40.7    61    6.2   294     9.5   871.5    0.00 
 113    3:00   0.00   40.1    63    7.0   287     9.1   871.5    0.00 
 113    3:10   0.00   40.3    63    7.2   285     8.8   871.5    0.00 
 113    3:20   0.00   39.6    65    6.8   282     8.0   871.4    0.00 
 113    3:30   0.00   41.0    62    8.1   292    10.8   871.3    0.00 
 113    3:40   0.00   41.5    61    7.3   285    10.1   871.3    0.00 
 113    3:50   0.00   40.6    63    7.1   289     9.6   871.3    0.00 
 113    4:00   0.00   42.3    60    9.2   312    12.0   871.3    0.00 
 113    4:10   0.00   43.8    54    8.9   305    11.3   871.2    0.00 
 113    4:20   0.00   44.4    47    8.8   291    19.9   871.3    0.00 
 113    4:30   0.00   46.4    42    9.8   296    14.4   871.3    0.00 
 113    4:40   0.00   46.7    40   11.5   281    20.9   871.4    0.00 
 113    4:50   0.00   47.5    39   11.7   262    16.8   871.5    0.00 
 113    5:00   0.00   46.5    44   10.2   242    14.2   871.6    0.00 
 113    5:10   0.00   46.1    46    8.7   249    13.4   871.7    0.00 
 113    5:20   0.01   44.0    51    7.5   275    10.7   871.7    0.00 
 113    5:30   0.01   43.8    52    9.2   256    11.6   871.7    0.00 
 113    5:40   0.03   44.6    51    9.7   263    13.1   871.8    0.00 
 113    5:50   0.05   45.1    51    9.5   265    12.0   871.9    0.00 
 113    6:00   0.08   45.5    52    8.8   275    12.5   872.0    0.00 
 113    6:10   0.10   46.4    51    8.6   286    12.7   872.1    0.00 
 113    6:20   0.12   46.9    52    7.0   280    12.9   872.1    0.00 
 113    6:30   0.15   47.1    53    6.0   282     8.7   872.1    0.00 
 113    6:40   0.21   47.9    54    6.8   279     9.7   872.1    0.00 
 113    6:50   0.22   48.7    54    6.8   307    10.2   872.1    0.00 
 113    7:00   0.20   48.7    54    3.9   308     8.7   872.2    0.00 
 113    7:10   0.26   49.4    55    2.7   312     6.4   872.2    0.00 
 113    7:20   0.32   50.2    52    4.9   296     9.1   872.2    0.00 
 113    7:30   0.40   51.1    52    6.3   285    11.5   872.2    0.00 
 113    7:40   0.47   51.9    51    5.9   297    11.0   872.2    0.00 
 113    7:50   0.50   52.1    49    6.4   292     9.9   872.3    0.00 
 113    8:00   0.54   52.6    50    5.0   321    10.7   872.3    0.00 
 113    8:10   0.61   53.0    48    3.7   331     6.7   872.3    0.00 
 113    8:20   0.60   53.7    46    3.2   350     5.8   872.3    0.00 
 113    8:30   0.63   54.0    45    2.3     6     5.6   872.4    0.00 
 113    8:40   0.65   54.6    45    4.1     0     7.3   872.4    0.00 
 113    8:50   0.68   54.8    44    2.3    19     6.9   872.4    0.00 
 113    9:00   0.72   55.3    44    3.1   360     6.9   872.4    0.00 
 113    9:10   0.73   56.0    41    2.3     2     6.3   872.4    0.00 
 113    9:20   0.70   57.5    40    3.6   194     9.5   872.4    0.00 
 113    9:30   0.77   57.4    37    3.9   316     8.8   872.4    0.00 
 113    9:40   0.80   58.8    37    6.8   214    13.6   872.4    0.00 
 113    9:50   0.82   59.8    34    5.8   222    10.7   872.3    0.00 
 113   10:00   0.84   60.5    34    7.0   214    11.3   872.2    0.00 
 113   10:10   0.85   60.0    33    4.8   244    10.9   872.2    0.00 
 113   10:20   0.87   58.8    34    5.9   292    13.8   872.1    0.00 
 113   10:30   0.88   59.0    33    8.0   292    16.4   872.1    0.00 
 113   10:40   0.90   59.3    33    7.1   280    15.1   872.0    0.00 
 113   10:50   0.91   60.1    33   10.1   257    16.7   872.0    0.00 
 113   11:00   0.92   60.5    31    9.2   265    18.2   871.8    0.00 
 113   11:10   0.90   60.9    31    9.8   243    17.3   871.8    0.00 
 113   11:20   0.93   61.4    31    8.0   219    18.2   871.6    0.00 
 113   11:30   0.94   61.7    30   12.0   247    20.8   871.6    0.00 
 113   11:40   0.85   61.2    30   10.1   262    17.7   871.5    0.00 
 113   11:50   0.79   61.7    30   11.2   240    20.0   871.3    0.00 
 113   12:00   0.94   62.3    30    4.5   194    15.4   871.2    0.00 
 113   12:10   0.77   63.5    29    8.1   237    15.4   871.1    0.00 
 113   12:20   0.93   63.8    28    6.1   218    12.9   871.0    0.00 
 113   12:30   0.84   64.2    28    9.9   225    21.7   870.9    0.00 
 113   12:40   0.77   64.6    26   10.3   228    17.5   870.8    0.00 
 113   12:50   0.67   63.8    27   11.3   223    19.7   870.8    0.00 
 113   13:00   0.90   64.9    26   10.5   209    18.4   870.7    0.00 
 113   13:10   0.85   65.8    26    9.9   201    21.8   870.7    0.00 
 113   13:20   0.81   64.8    23   13.8   247    28.4   870.6    0.00 
 113   13:30   0.80   65.1    26   10.6   216    22.1   870.4    0.00 
 113   13:40   0.79   65.4    22   12.8   239    22.0   870.4    0.00 
 113   13:50   0.78   65.4    24   10.0   228    30.6   870.3    0.00 
 113   14:00   0.78   66.0    23    9.4   216    18.2   870.1    0.00 
 113   14:10   0.69   65.2    22   10.4   222    17.8   869.9    0.00 
 113   14:20   0.73   66.2    23    9.5   238    16.1   869.8    0.00 
 113   14:30   0.73   65.5    23   14.6   230    25.4   869.8    0.00 
 113   14:40   0.72   65.4    22   13.1   238    21.8   869.8    0.00 
 113   14:50   0.59   65.7    22   13.9   239    26.8   869.5    0.00 
 113   15:00   0.43   64.3    22   13.4   237    24.8   869.5    0.00 
 113   15:10   0.59   63.8    20   16.1   258    25.4   869.5    0.00 
 113   15:20   0.46   65.2    22   13.6   248    24.3   869.4    0.00 
 113   15:30   0.61   65.8    23   14.9   236    30.1   869.3    0.00 
 113   15:40   0.42   64.6    24   14.6   247    24.2   869.5    0.00 
 113   15:50   0.40   63.6    25   15.0   246    21.3   869.5    0.00 
 113   16:00   0.35   63.4    25   14.7   255    23.3   869.5    0.00 
 113   16:10   0.45   63.7    24   18.0   254    24.8   869.4    0.00 
 113   16:20   0.31   63.0    25   15.2   264    21.7   869.4    0.00 
 113   16:30   0.26   62.4    26   13.7   250    21.6   869.5    0.00 
 113   16:40   0.19   61.6    26   15.4   247    22.4   869.5    0.00 
 113   16:50   0.17   61.0    27   15.1   236    22.0   869.7    0.00 
 113   17:00   0.18   60.8    26   16.9   236    24.3   869.7    0.00 
 113   17:10   0.18   61.1    26   14.9   245    21.0   869.8    0.00 
 113   17:20   0.15   61.2    26   14.9   256    22.5   869.8    0.00 
 113   17:30   0.13   60.9    29   12.9   267    20.2   869.8    0.00 
 113   17:40   0.15   60.5    29   12.7   268    20.3   869.7    0.00 
 113   17:50   0.11   60.1    30   12.9   275    19.0   869.6    0.00 
 113   18:00   0.07   58.9    30   13.8   294    19.6   869.7    0.00 
 113   18:10   0.06   58.2    30   13.4   296    18.8   869.8    0.00 
 113   18:20   0.05   57.8    30   12.9   291    19.4   869.8    0.00 
 113   18:30   0.03   57.1    32   10.8   292    16.3   869.9    0.00 
 113   18:40   0.01   56.5    32   10.9   289    15.7   870.0    0.00 
 113   18:50   0.00   56.0    33   11.0   287    15.8   870.1    0.00 
 113   19:00   0.00   55.6    33   12.1   287    16.5   870.1    0.00 
 113   19:10   0.00   55.1    33   11.9   281    16.2   870.1    0.00 
 113   19:20   0.00   54.4    34   10.7   278    15.6   870.2    0.00 
 113   19:30   0.00   54.0    34   11.3   266    19.1   870.4    0.00 
 113   19:40   0.00   53.4    33    9.2   267    13.6   870.7    0.00 
 113   19:50   0.00   52.8    34    8.6   284    13.8   870.9    0.00 
 113   20:00   0.00   52.2    34    7.5   284    12.2   870.9    0.00 
 113   20:10   0.00   52.1    33   11.3   283    19.4   870.8    0.00 
 113   20:20   0.00   52.2    33   14.8   273    20.7   870.7    0.00 
 113   20:30   0.00   51.8    33   11.4   270    19.2   870.8    0.00 
 113   20:40   0.00   51.4    34    6.8   285    11.4   871.0    0.00 
 113   20:50   0.00   51.1    34    7.1   292    13.9   871.2    0.00 
 113   21:00   0.00   50.9    34    7.5   269    13.2   871.0    0.00 
 113   21:10   0.00   50.3    35    7.2   267    14.0   870.9    0.00 
 113   21:20   0.00   50.0    37    5.3   267    12.0   870.9    0.00 
 113   21:30   0.00   49.2    38    3.3   301     9.5   870.9    0.00 
 113   21:40   0.00   48.8    41    4.9   257     9.1   870.9    0.00 
 113   21:50   0.00   47.1    45    4.6   228     7.3   870.7    0.00 
 113   22:00   0.00   46.3    46    3.3   247     7.2   870.7    0.00 
 113   22:10   0.00   46.9    45    3.3   247     7.7   870.5    0.00 
 113   22:20   0.00   46.8    46    1.5   145     6.2   870.4    0.00 
 113   22:30   0.00   45.5    50    2.6   111     4.7   870.4    0.00 
 113   22:40   0.00   44.2    54    3.4   130     4.5   870.2    0.00 
 113   22:50   0.00   44.8    53    1.7   201     3.6   870.2    0.00 
 113   23:00   0.00   45.6    52    1.6   199     5.6   870.1    0.00 
 113   23:10   0.00   46.2    52    4.5   232     8.0   870.0    0.00 
 113   23:20   0.00   44.8    55    4.8   230     6.9   870.0    0.00 
 113   23:30   0.00   44.8    56    4.5   246     6.6   869.8    0.00 
 113   23:40   0.00   45.0    54    6.8   264     9.4   869.7    0.00 
 113   23:50   0.00   46.1    52    8.5   260    11.9   869.7    0.00 
 114    0:00   0.00   47.9    50   11.2   259    16.2   869.6    0.00 
 114    0:10   0.00   48.7    49   11.1   262    15.8   869.5    0.00 
 114    0:20   0.00   48.9    48    9.4   256    15.9   869.5    0.00 
 114    0:30   0.00   49.2    49    9.6   244    17.6   869.4    0.00 
 114    0:40   0.00   49.2    50    8.7   250    13.7   869.4    0.00 
 114    0:50   0.00   49.0    52    9.1   230    15.2   869.4    0.00 
 114    1:00   0.00   48.9    54    7.4   223    15.4   869.4    0.00 
 114    1:10   0.00   48.5    56    6.2   209    10.3   869.3    0.00 
 114    1:20   0.00   48.0    58    3.9   215     6.9   869.1    0.00 
 114    1:30   0.00   48.0    57    5.6   235    10.3   868.8    0.00 
 114    1:40   0.00   48.0    58    4.8   228     9.9   868.7    0.00 
 114    1:50   0.00   48.0    58    6.2   237    10.6   868.6    0.00 
 114    2:00   0.00   46.8    63    7.6   198    14.0   868.4    0.00 
 114    2:10   0.00   46.6    63    8.2   197    12.3   868.4    0.00 
 114    2:20   0.00   46.2    66    6.3   177     9.1   868.3    0.00 

Return to Hualapai Flat graphs page.


Western Regional Climate Center,wrcc@dri.edu